createdAt,value
2023-04-18T00:02:10.607Z,7.10
2023-04-18T00:04:38.807Z,7.47
2023-04-18T00:07:06.940Z,7.97
2023-04-18T00:09:35.155Z,7.83
2023-04-18T00:12:04.910Z,8.53
2023-04-18T00:14:34.137Z,7.77
2023-04-18T00:17:02.865Z,7.57
2023-04-18T00:19:31.332Z,7.40
2023-04-18T00:21:59.847Z,7.23
2023-04-18T00:24:27.868Z,7.43
2023-04-18T00:26:57.069Z,7.23
2023-04-18T00:29:26.482Z,8.13
2023-04-18T00:31:54.631Z,8.47
2023-04-18T00:34:24.141Z,8.30
2023-04-18T00:36:54.814Z,8.43
2023-04-18T00:39:23.035Z,7.87
2023-04-18T00:41:50.993Z,8.20
2023-04-18T00:44:19.173Z,8.83
2023-04-18T00:46:48.542Z,8.67
2023-04-18T00:49:16.915Z,7.77
2023-04-18T00:51:45.591Z,7.87
2023-04-18T00:54:14.138Z,7.87
2023-04-18T00:56:42.529Z,7.70
2023-04-18T00:59:14.675Z,8.40
2023-04-18T01:01:43.574Z,7.97
2023-04-18T01:04:13.306Z,8.23
2023-04-18T01:06:43.998Z,8.43
2023-04-18T01:09:16.023Z,8.07
2023-04-18T01:11:46.090Z,8.00
2023-04-18T01:14:14.657Z,8.07
2023-04-18T01:16:44.019Z,7.63
2023-04-18T01:19:19.137Z,8.53
2023-04-18T01:21:47.425Z,8.07
2023-04-18T01:24:18.402Z,7.67
2023-04-18T01:26:48.451Z,7.80
2023-04-18T01:29:16.686Z,8.67
2023-04-18T01:31:44.815Z,8.90
2023-04-18T01:34:17.754Z,8.17
2023-04-18T01:36:46.687Z,8.03
2023-04-18T01:39:18.300Z,8.13
2023-04-18T01:41:46.892Z,8.20
2023-04-18T01:44:15.046Z,7.90
2023-04-18T01:46:43.231Z,8.57
2023-04-18T01:49:11.300Z,8.63
2023-04-18T01:51:39.832Z,8.43
2023-04-18T01:54:07.844Z,7.77
2023-04-18T01:56:37.204Z,8.20
2023-04-18T01:59:05.269Z,8.80
2023-04-18T02:01:33.320Z,8.67
2023-04-18T02:04:01.436Z,8.00
2023-04-18T02:06:29.641Z,8.27
2023-04-18T02:08:57.630Z,8.00
2023-04-18T02:11:26.465Z,8.50
2023-04-18T02:13:55.834Z,8.30
2023-04-18T02:16:23.897Z,8.00
2023-04-18T02:18:52.845Z,8.70
2023-04-18T02:21:21.858Z,8.60
2023-04-18T02:23:50.980Z,8.07
2023-04-18T02:26:19.096Z,7.67
2023-04-18T02:28:47.271Z,8.43
2023-04-18T02:31:16.859Z,7.73
2023-04-18T02:33:46.886Z,8.33
2023-04-18T02:36:15.126Z,8.17
2023-04-18T02:38:44.849Z,7.83
2023-04-18T02:41:15.335Z,7.50
2023-04-18T02:43:43.620Z,8.20
2023-04-18T02:46:11.885Z,8.47
2023-04-18T02:48:41.886Z,7.67
2023-04-18T02:51:11.462Z,7.93
2023-04-18T02:53:40.271Z,8.40
2023-04-18T02:56:09.005Z,7.63
2023-04-18T02:58:57.043Z,7.70
2023-04-18T03:01:40.999Z,8.63
2023-04-18T03:04:14.008Z,7.43
2023-04-18T03:06:53.265Z,7.03
2023-04-18T03:09:21.353Z,6.80
2023-04-18T03:11:55.702Z,7.47
2023-04-18T03:14:27.422Z,6.87
2023-04-18T03:16:57.010Z,7.50
2023-04-18T03:19:31.841Z,7.07
2023-04-18T03:22:07.325Z,7.30
2023-04-18T03:24:38.214Z,6.63
2023-04-18T03:27:08.180Z,7.37
2023-04-18T03:29:38.658Z,7.63
2023-04-18T03:32:07.007Z,6.93
2023-04-18T03:34:36.381Z,7.13
2023-04-18T03:37:07.405Z,7.33
2023-04-18T03:39:40.974Z,6.50
2023-04-18T03:42:09.412Z,7.80
2023-04-18T03:44:37.690Z,8.07
2023-04-18T03:47:05.898Z,7.13
2023-04-18T03:49:38.978Z,8.00
2023-04-18T03:52:07.140Z,7.33
2023-04-18T03:54:35.294Z,7.60
2023-04-18T03:57:05.263Z,8.07
2023-04-18T03:59:36.503Z,7.80
2023-04-18T04:02:04.828Z,7.63
2023-04-18T04:04:33.193Z,8.13
2023-04-18T04:07:02.738Z,7.70
2023-04-18T04:09:30.996Z,7.70
2023-04-18T04:11:59.062Z,8.30
2023-04-18T04:14:28.794Z,7.23
2023-04-18T04:16:56.920Z,8.23
2023-04-18T04:19:25.254Z,8.47
2023-04-18T04:22:04.872Z,9.27
2023-04-18T04:24:33.860Z,8.80
2023-04-18T04:27:03.685Z,8.17
2023-04-18T04:29:57.486Z,7.97
2023-04-18T04:32:27.485Z,8.33
2023-04-18T04:34:56.265Z,8.60
2023-04-18T04:37:26.062Z,8.20
2023-04-18T04:40:09.405Z,8.37
2023-04-18T04:42:53.904Z,8.10
2023-04-18T04:45:27.988Z,8.30
2023-04-18T04:47:56.875Z,9.03
2023-04-18T04:50:25.574Z,8.53
2023-04-18T04:52:55.028Z,8.40
2023-04-18T04:55:23.142Z,8.50
2023-04-18T04:57:51.695Z,8.70
2023-04-18T05:00:33.762Z,8.17
2023-04-18T05:03:02.265Z,8.17
2023-04-18T05:05:31.136Z,8.87
2023-04-18T05:08:00.551Z,9.10
2023-04-18T05:10:28.980Z,8.10
2023-04-18T05:12:57.354Z,8.10
2023-04-18T05:15:25.657Z,8.60
2023-04-18T05:17:53.889Z,8.43
2023-04-18T05:20:22.286Z,7.97
2023-04-18T05:22:50.485Z,8.17
2023-04-18T05:25:20.033Z,8.07
2023-04-18T05:27:48.062Z,8.23
2023-04-18T05:30:16.272Z,8.33
2023-04-18T05:32:44.620Z,7.97
2023-04-18T05:35:12.788Z,8.93
2023-04-18T05:37:40.881Z,8.50
2023-04-18T05:40:10.738Z,8.23
2023-04-18T05:42:40.351Z,7.80
2023-04-18T05:45:09.883Z,8.30
2023-04-18T05:47:37.932Z,8.53
2023-04-18T05:50:07.728Z,8.37
2023-04-18T05:52:35.869Z,8.07
2023-04-18T05:55:04.100Z,8.23
2023-04-18T05:57:32.439Z,8.27
2023-04-18T06:00:01.986Z,7.57
2023-04-18T06:02:40.915Z,8.03
2023-04-18T06:05:10.730Z,8.10
2023-04-18T06:07:39.102Z,7.40
2023-04-18T06:10:11.120Z,8.23
2023-04-18T06:12:39.239Z,7.30
2023-04-18T06:15:11.108Z,8.83
2023-04-18T06:17:39.445Z,7.20
2023-04-18T06:20:08.928Z,8.20
2023-04-18T06:22:37.049Z,7.87
2023-04-18T06:25:05.905Z,8.70
2023-04-18T06:27:33.985Z,7.80
2023-04-18T06:30:02.102Z,7.33
2023-04-18T06:32:31.604Z,7.83
2023-04-18T06:34:59.777Z,7.97
2023-04-18T06:37:28.005Z,9.00
2023-04-18T06:39:56.116Z,7.43
2023-04-18T06:42:24.227Z,7.33
2023-04-18T06:44:52.347Z,7.10
2023-04-18T06:47:20.424Z,8.50
2023-04-18T06:49:49.909Z,7.80
2023-04-18T06:52:18.067Z,7.73
2023-04-18T06:54:46.249Z,7.03
2023-04-18T06:57:14.330Z,7.20
2023-04-18T06:59:42.514Z,8.47
2023-04-18T07:02:10.742Z,8.00
2023-04-18T07:04:39.224Z,7.70
2023-04-18T07:07:08.701Z,8.27
2023-04-18T07:09:36.839Z,8.07
2023-04-18T07:12:05.229Z,7.73
2023-04-18T07:14:34.317Z,8.40
2023-04-18T07:17:03.003Z,8.63
2023-04-18T07:19:31.217Z,8.37
2023-04-18T07:21:59.351Z,8.07
2023-04-18T07:24:28.756Z,8.33
2023-04-18T07:26:56.906Z,7.67
2023-04-18T07:29:25.201Z,7.47
2023-04-18T07:31:53.325Z,7.93
2023-04-18T07:34:22.247Z,8.33
2023-04-18T07:36:50.630Z,7.87
2023-04-18T07:39:18.849Z,7.40
2023-04-18T07:41:48.263Z,7.57
2023-04-18T07:44:16.518Z,7.73
2023-04-18T07:46:44.767Z,8.57
2023-04-18T07:49:13.167Z,7.57
2023-04-18T07:51:41.548Z,7.57
2023-04-18T07:54:11.034Z,7.23
2023-04-18T07:56:39.311Z,7.40
2023-04-18T07:59:08.724Z,8.00
2023-04-18T08:01:38.100Z,8.00
2023-04-18T08:04:06.813Z,7.37
2023-04-18T08:06:35.653Z,7.87
2023-04-18T08:09:05.866Z,8.07
2023-04-18T08:11:34.996Z,9.00
2023-04-18T08:14:03.421Z,8.87
2023-04-18T08:16:33.200Z,8.17
2023-04-18T08:19:01.309Z,7.60
2023-04-18T08:21:29.596Z,8.03
2023-04-18T08:23:57.742Z,8.47
2023-04-18T08:26:26.036Z,8.17
2023-04-18T08:28:54.159Z,8.63
2023-04-18T08:31:22.368Z,7.30
2023-04-18T08:33:51.838Z,8.27
2023-04-18T08:36:20.045Z,8.40
2023-04-18T08:38:48.197Z,8.07
2023-04-18T08:41:21.836Z,8.97
2023-04-18T08:43:50.072Z,8.37
2023-04-18T08:46:19.076Z,8.13
2023-04-18T08:48:52.536Z,7.57
2023-04-18T08:51:21.539Z,8.83
2023-04-18T08:53:50.658Z,8.60
2023-04-18T08:56:22.372Z,7.80
2023-04-18T08:58:50.777Z,8.23
2023-04-18T09:01:18.937Z,7.70
2023-04-18T09:03:47.662Z,8.40
2023-04-18T09:06:18.964Z,8.40
2023-04-18T09:08:59.036Z,8.87
2023-04-18T09:11:31.972Z,7.80
2023-04-18T09:14:00.323Z,7.90
2023-04-18T09:16:29.339Z,9.00
2023-04-18T09:19:13.141Z,8.00
2023-04-18T09:21:46.233Z,8.63
2023-04-18T09:24:24.892Z,8.97
2023-04-18T09:26:55.838Z,8.60
2023-04-18T09:29:42.185Z,8.47
2023-04-18T09:32:12.908Z,8.93
2023-04-18T09:34:43.421Z,9.80
2023-04-18T09:37:14.864Z,9.10
2023-04-18T09:39:45.260Z,8.80
2023-04-18T09:42:13.848Z,9.73
2023-04-18T09:45:04.741Z,8.57
2023-04-18T09:47:35.030Z,9.00
2023-04-18T09:50:04.537Z,8.80
2023-04-18T09:52:36.897Z,9.03
2023-04-18T09:55:09.176Z,10.03
2023-04-18T09:57:40.630Z,8.97
2023-04-18T10:00:17.241Z,8.47
2023-04-18T10:02:59.265Z,9.10
2023-04-18T10:05:31.792Z,8.53
2023-04-18T10:08:01.516Z,8.53
2023-04-18T10:10:30.303Z,8.27
2023-04-18T10:13:00.670Z,8.40
2023-04-18T10:15:31.953Z,8.57
2023-04-18T10:18:05.684Z,8.50
2023-04-18T10:20:35.774Z,8.73
2023-04-18T10:23:37.510Z,8.80
2023-04-18T10:26:06.289Z,9.03
2023-04-18T10:28:56.677Z,8.67
2023-04-18T10:31:27.015Z,8.50
2023-04-18T10:34:05.689Z,8.17
2023-04-18T10:36:34.681Z,8.87
2023-04-18T10:39:23.115Z,8.63
2023-04-18T10:41:52.358Z,7.83
2023-04-18T10:44:24.225Z,7.67
2023-04-18T10:47:32.229Z,7.20
2023-04-18T10:50:06.340Z,7.63
2023-04-18T10:52:35.812Z,7.17
2023-04-18T10:55:25.411Z,6.83
2023-04-18T10:57:56.317Z,6.80
2023-04-18T11:00:25.972Z,6.87
2023-04-18T11:02:57.669Z,6.83
2023-04-18T11:05:28.967Z,6.17
2023-04-18T11:07:57.219Z,6.73
2023-04-18T11:10:27.937Z,7.40
2023-04-18T11:12:56.612Z,6.73
2023-04-18T11:15:27.147Z,6.40
2023-04-18T11:17:59.299Z,6.00
2023-04-18T11:20:28.204Z,6.70
2023-04-18T11:22:58.422Z,6.67
2023-04-18T11:25:30.720Z,6.67
2023-04-18T11:28:01.160Z,6.80
2023-04-18T11:30:36.888Z,6.00
2023-04-18T11:33:08.353Z,12.43
2023-04-18T11:35:39.675Z,7.07
2023-04-18T11:38:08.334Z,6.77
2023-04-18T11:40:38.941Z,6.73
2023-04-18T11:43:08.503Z,6.83
2023-04-18T11:45:36.809Z,6.23
2023-04-18T11:48:06.111Z,6.30
2023-04-18T11:50:38.209Z,6.50
2023-04-18T11:53:06.413Z,6.80
2023-04-18T11:55:34.596Z,5.93
2023-04-18T11:58:04.336Z,5.70
2023-04-18T12:00:35.373Z,5.83
2023-04-18T12:03:05.973Z,6.37
2023-04-18T12:05:36.117Z,6.50
2023-04-18T12:08:09.977Z,6.00
2023-04-18T12:10:39.487Z,6.67
2023-04-18T12:13:09.728Z,5.33
2023-04-18T12:15:41.578Z,6.00
2023-04-18T12:18:10.288Z,6.13
2023-04-18T12:20:46.628Z,6.40
2023-04-18T12:23:31.758Z,5.87
2023-04-18T12:26:01.608Z,6.10
2023-04-18T12:28:31.579Z,6.20
2023-04-18T12:31:00.222Z,7.10
2023-04-18T12:33:28.657Z,6.37
2023-04-18T12:35:57.365Z,6.93
2023-04-18T12:38:25.711Z,6.70
2023-04-18T12:40:54.128Z,6.60
2023-04-18T12:43:22.272Z,6.97
2023-04-18T12:45:51.886Z,6.00
2023-04-18T12:48:20.118Z,7.10
2023-04-18T12:50:48.230Z,7.20
2023-04-18T12:53:16.883Z,7.07
2023-04-18T12:55:45.023Z,6.70
2023-04-18T12:58:18.334Z,7.20
2023-04-18T13:00:46.659Z,7.23
2023-04-18T13:03:16.286Z,7.00
2023-04-18T13:05:44.609Z,6.40
2023-04-18T13:08:16.909Z,6.60
2023-04-18T13:10:46.183Z,5.43
2023-04-18T13:13:14.605Z,6.10
2023-04-18T13:15:42.759Z,5.67
2023-04-18T13:18:10.922Z,5.80
2023-04-18T13:20:40.649Z,4.97
2023-04-18T13:23:08.714Z,5.43
2023-04-18T13:25:36.787Z,4.93
2023-04-18T13:28:05.165Z,4.73
2023-04-18T13:30:35.573Z,5.37
2023-04-18T13:33:03.791Z,3.73
2023-04-18T13:35:32.055Z,4.20
2023-04-18T13:38:01.574Z,3.33
2023-04-18T13:40:29.752Z,2.97
2023-04-18T13:42:57.888Z,3.50
2023-04-18T13:45:26.101Z,3.57
2023-04-18T13:47:54.283Z,3.30
2023-04-18T13:50:23.102Z,3.93
2023-04-18T13:52:51.850Z,3.80
2023-04-18T13:55:22.958Z,3.70
2023-04-18T13:58:16.944Z,3.83
2023-04-18T14:00:44.994Z,3.80
2023-04-18T14:03:13.183Z,3.30
2023-04-18T14:05:41.299Z,3.40
2023-04-18T14:08:14.236Z,3.50
2023-04-18T14:10:43.686Z,2.77
2023-04-18T14:13:11.721Z,3.57
2023-04-18T14:15:45.121Z,3.60
2023-04-18T14:18:13.221Z,3.20
2023-04-18T14:20:41.565Z,3.33
2023-04-18T14:23:09.695Z,3.00
2023-04-18T14:25:37.932Z,2.80
2023-04-18T14:28:09.794Z,3.33
2023-04-18T14:30:39.036Z,3.40
2023-04-18T14:33:09.158Z,3.30
2023-04-18T14:35:37.512Z,3.80
2023-04-18T14:38:05.696Z,3.70
2023-04-18T14:40:34.183Z,3.00
2023-04-18T14:43:02.477Z,3.10
2023-04-18T14:45:33.831Z,3.40
2023-04-18T14:48:02.077Z,4.00
2023-04-18T14:50:30.315Z,3.37
2023-04-18T14:52:58.448Z,3.80
2023-04-18T14:55:27.289Z,5.20
2023-04-18T14:57:55.448Z,3.80
2023-04-18T15:00:23.648Z,3.60
2023-04-18T15:02:53.580Z,3.10
2023-04-18T15:05:24.437Z,2.90
2023-04-18T15:07:52.711Z,3.00
2023-04-18T15:10:22.416Z,3.03
2023-04-18T15:12:51.142Z,3.53
2023-04-18T15:15:20.810Z,3.20
2023-04-18T15:17:49.284Z,3.50
2023-04-18T15:20:18.785Z,3.53
2023-04-18T15:22:47.853Z,3.37
2023-04-18T15:25:17.102Z,3.70
2023-04-18T15:27:45.220Z,3.40
2023-04-18T15:30:14.417Z,3.77
2023-04-18T15:32:42.536Z,3.73
2023-04-18T15:35:11.314Z,3.70
2023-04-18T15:37:41.488Z,3.43
2023-04-18T15:40:16.034Z,4.17
2023-04-18T15:42:44.530Z,3.87
2023-04-18T15:45:13.206Z,3.50
2023-04-18T15:47:41.692Z,4.03
2023-04-18T15:50:11.022Z,3.83
2023-04-18T15:52:41.579Z,4.07
2023-04-18T15:55:12.184Z,3.63
2023-04-18T15:57:40.595Z,3.53
2023-04-18T16:00:15.857Z,3.70
2023-04-18T16:02:45.143Z,3.77
2023-04-18T16:05:13.847Z,4.10
2023-04-18T16:07:43.951Z,3.70
2023-04-18T16:10:12.875Z,3.77
2023-04-18T16:12:41.801Z,4.33
2023-04-18T16:15:11.747Z,4.50
2023-04-18T16:17:40.139Z,4.90
2023-04-18T16:20:09.517Z,4.23
2023-04-18T16:22:38.446Z,4.20
2023-04-18T16:25:10.205Z,4.53
2023-04-18T16:27:38.901Z,4.13
2023-04-18T16:30:09.967Z,4.77
2023-04-18T16:32:39.148Z,4.30
2023-04-18T16:35:10.159Z,4.63
2023-04-18T16:37:38.888Z,4.33
2023-04-18T16:40:10.152Z,4.53
2023-04-18T16:42:38.427Z,4.23
2023-04-18T16:45:07.675Z,4.77
2023-04-18T16:47:35.740Z,4.43
2023-04-18T16:50:03.919Z,4.50
2023-04-18T16:52:32.036Z,4.53
2023-04-18T16:55:00.127Z,4.53
2023-04-18T16:57:29.576Z,4.03
2023-04-18T16:59:58.207Z,4.77
2023-04-18T17:02:26.486Z,4.77
2023-04-18T17:04:54.703Z,4.23
2023-04-18T17:07:22.790Z,4.73
2023-04-18T17:09:50.989Z,4.73
2023-04-18T17:12:19.104Z,4.80
2023-04-18T17:14:48.629Z,4.13
2023-04-18T17:17:16.780Z,4.03
2023-04-18T17:19:45.942Z,4.57
2023-04-18T17:22:14.164Z,4.07
2023-04-18T17:24:42.243Z,4.40
2023-04-18T17:27:10.429Z,4.47
2023-04-18T17:29:38.549Z,4.43
2023-04-18T17:32:08.364Z,5.00
2023-04-18T17:34:36.484Z,4.37
2023-04-18T17:37:05.365Z,4.83
2023-04-18T17:39:33.428Z,4.80
2023-04-18T17:42:02.103Z,5.00
2023-04-18T17:44:30.955Z,4.70
2023-04-18T17:46:59.902Z,4.33
2023-04-18T17:49:34.450Z,3.97
2023-04-18T17:52:03.546Z,4.27
2023-04-18T17:54:31.937Z,4.37
2023-04-18T17:57:01.840Z,5.13
2023-04-18T17:59:30.245Z,4.93
2023-04-18T18:02:01.789Z,4.83
2023-04-18T18:04:31.646Z,5.40
2023-04-18T18:07:00.141Z,5.03
2023-04-18T18:09:28.664Z,4.87
2023-04-18T18:11:56.913Z,4.60
2023-04-18T18:14:25.082Z,4.83
2023-04-18T18:16:53.365Z,4.53
2023-04-18T18:19:21.569Z,4.47
2023-04-18T18:21:51.206Z,3.90
2023-04-18T18:24:20.104Z,4.53
2023-04-18T18:26:50.268Z,4.50
2023-04-18T18:29:19.913Z,4.30
2023-04-18T18:31:48.071Z,4.57
2023-04-18T18:34:16.851Z,4.73
2023-04-18T18:36:44.948Z,4.70
2023-04-18T18:39:16.610Z,5.40
2023-04-18T18:41:45.091Z,5.00
2023-04-18T18:44:13.875Z,5.00
2023-04-18T18:46:43.239Z,5.20
2023-04-18T18:49:11.624Z,5.07
2023-04-18T18:51:41.107Z,5.47
2023-04-18T18:54:09.160Z,4.90
2023-04-18T18:56:39.927Z,5.10
2023-04-18T18:59:08.077Z,4.73
2023-04-18T19:01:36.731Z,4.70
2023-04-18T19:04:05.254Z,4.77
2023-04-18T19:06:33.382Z,5.30
2023-04-18T19:09:01.486Z,5.10
2023-04-18T19:11:29.595Z,5.50
2023-04-18T19:13:59.007Z,5.03
2023-04-18T19:16:27.124Z,4.67
2023-04-18T19:18:55.187Z,5.30
2023-04-18T19:21:23.453Z,5.53
2023-04-18T19:23:51.553Z,5.73
2023-04-18T19:26:19.746Z,5.23
2023-04-18T19:28:47.896Z,5.43
2023-04-18T19:31:17.332Z,5.57
2023-04-18T19:33:46.024Z,5.43
2023-04-18T19:36:14.117Z,5.17
2023-04-18T19:38:42.626Z,5.07
2023-04-18T19:41:10.713Z,4.87
2023-04-18T19:43:40.704Z,5.63
2023-04-18T19:46:08.766Z,5.77
2023-04-18T19:48:38.162Z,5.17
2023-04-18T19:51:06.287Z,5.17
2023-04-18T19:53:35.814Z,5.53
2023-04-18T19:56:04.045Z,5.50
2023-04-18T19:58:39.808Z,5.97
2023-04-18T20:01:09.910Z,5.43
2023-04-18T20:03:39.972Z,6.00
2023-04-18T20:06:08.906Z,5.00
2023-04-18T20:08:41.718Z,6.03
2023-04-18T20:11:11.819Z,5.30
2023-04-18T20:13:40.227Z,6.20
2023-04-18T20:16:10.914Z,5.20
2023-04-18T20:18:42.286Z,5.87
2023-04-18T20:21:11.390Z,5.77
2023-04-18T20:23:41.760Z,5.60
2023-04-18T20:26:10.242Z,5.33
2023-04-18T20:28:38.611Z,5.30
2023-04-18T20:31:07.097Z,5.43
2023-04-18T20:33:37.828Z,5.93
2023-04-18T20:36:08.170Z,6.47
2023-04-18T20:38:36.836Z,5.73
2023-04-18T20:41:04.945Z,5.47
2023-04-18T20:43:36.512Z,5.87
2023-04-18T20:46:04.840Z,5.53
2023-04-18T20:48:32.876Z,5.97
2023-04-18T20:51:01.123Z,6.43
2023-04-18T20:53:30.574Z,6.30
2023-04-18T20:55:59.236Z,6.17
2023-04-18T20:58:27.352Z,5.77
2023-04-18T21:00:55.432Z,6.23
2023-04-18T21:03:23.885Z,6.20
2023-04-18T21:05:51.985Z,6.00
2023-04-18T21:08:20.264Z,6.23
2023-04-18T21:10:49.641Z,6.50
2023-04-18T21:13:17.780Z,5.70
2023-04-18T21:15:46.029Z,5.97
2023-04-18T21:18:14.319Z,6.20
2023-04-18T21:20:42.349Z,6.20
2023-04-18T21:23:10.413Z,6.37
2023-04-18T21:25:38.875Z,6.93
2023-04-18T21:28:08.824Z,6.10
2023-04-18T21:30:36.910Z,6.10
2023-04-18T21:33:05.189Z,6.47
2023-04-18T21:35:33.355Z,6.67
2023-04-18T21:38:01.389Z,6.10
2023-04-18T21:40:30.745Z,5.47
2023-04-18T21:42:58.825Z,6.27
2023-04-18T21:45:28.357Z,6.47
2023-04-18T21:47:56.460Z,6.37
2023-04-18T21:50:24.957Z,6.77
2023-04-18T21:52:53.057Z,6.40
2023-04-18T21:55:21.250Z,5.63
2023-04-18T21:57:49.350Z,6.73
2023-04-18T22:00:18.396Z,6.63
2023-04-18T22:02:48.053Z,6.53
2023-04-18T22:05:16.881Z,6.40
2023-04-18T22:07:56.803Z,5.33
2023-04-18T22:10:25.988Z,5.57
2023-04-18T22:12:54.442Z,5.87
2023-04-18T22:15:22.569Z,6.80
2023-04-18T22:17:52.057Z,6.63
2023-04-18T22:20:20.213Z,7.17
2023-04-18T22:22:48.437Z,6.40
2023-04-18T22:25:16.745Z,6.97
2023-04-18T22:27:46.449Z,5.97
2023-04-18T22:30:15.837Z,6.37
2023-04-18T22:33:10.028Z,6.30
2023-04-18T22:35:38.305Z,6.67
2023-04-18T22:38:06.432Z,6.23
2023-04-18T22:40:34.517Z,6.53
2023-04-18T22:43:02.596Z,5.80
2023-04-18T22:45:30.739Z,6.10
2023-04-18T22:47:58.847Z,6.40
2023-04-18T22:50:30.112Z,5.50
2023-04-18T22:52:58.197Z,5.90
2023-04-18T22:55:26.353Z,6.00
2023-04-18T22:57:54.391Z,5.50
2023-04-18T23:00:22.497Z,6.00
2023-04-18T23:02:51.743Z,5.73
2023-04-18T23:05:20.106Z,5.83
2023-04-18T23:07:49.515Z,6.30
2023-04-18T23:10:17.607Z,5.57
2023-04-18T23:12:45.670Z,6.83
2023-04-18T23:15:13.760Z,6.40
2023-04-18T23:17:41.907Z,5.20
2023-04-18T23:20:12.356Z,5.90
2023-04-18T23:22:41.388Z,5.97
2023-04-18T23:25:11.134Z,6.07
2023-04-18T23:27:39.255Z,5.87
2023-04-18T23:30:32.723Z,6.20
2023-04-18T23:33:00.790Z,6.00
2023-04-18T23:35:28.845Z,6.37
2023-04-18T23:37:58.778Z,6.17
2023-04-18T23:40:28.180Z,6.23
2023-04-18T23:42:56.290Z,6.00
2023-04-18T23:45:24.707Z,6.37
2023-04-18T23:47:53.090Z,7.23
2023-04-18T23:50:21.272Z,6.67
2023-04-18T23:52:49.282Z,6.27
2023-04-18T23:55:17.763Z,7.03
2023-04-18T23:57:47.119Z,6.67
